Capitol Logistics 507




ZGGG
Guangzhou Baiyun International Airport
Guangzhou, CN
RKSI
Incheon International Airport
Seoul, KR

Activity Log

Date Flight Route Aircraft Duration
No Flights Yet

Route Details

Aircraft Information
Group: Trans-Pacific Ops
Types: B744,B763,MD11
Route Data
Demand: H
Distance: 1084nm
Duration: 3h 00m
Recm'd Route: LMN1E LMN G471 PLT A599 PUD W11 PINOT W115 MATNU G455 SURAK A326 OMLIB W209 AGAVO G597 GONAV GONA3M
Origin Wx: ZGGG 270530Z 13002MPS 090V190 4000 TSRA SCT013 SCT033CB SCT033 25/25 Q1004 BECMG AT0550 -TSRA
Dest. Wx: RKSI 270530Z 24013KT CAVOK 21/11 Q1001 NOSIG
Notes:

Financial History
Total Freight: 0lbs
Average Load: 0lbs/flt
Fuel Used: 0lbs
Avg. Fuel Used: 0lbs/flt
Fuel Expense: $0
Avg. Fuel Expense: $0
Avg. Fuel Cost: $0/lbs
Total Gross Income: $0
Pilot Pay: $0
Total Expenses: $0
Total Revenue: $0
Average Revenue: $0